Bethany, Oklahoma
Current Conditions -  °F | °C
As of 9:53 AM on Friday 24 Oct 2014 (Local Time) from KPWA Reporting Station
Clear Clear  
Wind Chill: 64°   Ceiling: Unl
Heat Index: 64°   Visibility: 8mi
Dew Point: 57°   Wind: 13mph
Humidity: 78%   Direction: 180°S
Pressure: 30.12"   Gusts: NA
Location:  35.51°N, 97.63°W
Report Text: KPWA 241453Z 18011KT 8SM CLR 18/14 A3012 RMK AO2 SLP189 T01780139 53011
Loading
Personal Weather Stations






























Interactive Weather Map
Tropical Storm Tracking
New forecast layout! Learn more

10-Day Weather Forecast

Advertisements
Track Severe Weather on mobile